createdAt,value
2022-10-02T00:00:20.924Z,99926.78
2022-10-02T00:02:55.395Z,99929.91
2022-10-02T00:05:36.854Z,99932.66
2022-10-02T00:08:12.265Z,99927.22
2022-10-02T00:10:44.840Z,99918.69
2022-10-02T00:13:17.228Z,99913.25
2022-10-02T00:15:44.627Z,99932.50
2022-10-02T00:18:15.268Z,99923.88
2022-10-02T00:20:54.471Z,99935.88
2022-10-02T00:23:35.858Z,99942.53
2022-10-02T00:26:11.899Z,99939.06
2022-10-02T00:28:52.239Z,99934.50
2022-10-02T00:32:04.251Z,99937.56
2022-10-02T00:34:49.611Z,99938.56
2022-10-02T00:37:30.065Z,99945.91
2022-10-02T00:40:15.851Z,99954.53
2022-10-02T00:43:17.571Z,99967.09
2022-10-02T00:45:59.792Z,99971.41
2022-10-02T00:48:44.775Z,99960.12
2022-10-02T00:51:26.440Z,99973.91
2022-10-02T00:54:08.985Z,99964.16
2022-10-02T00:56:58.929Z,99965.31
2022-10-02T00:59:34.695Z,99966.47
2022-10-02T01:02:11.719Z,99969.53
2022-10-02T01:04:39.670Z,99967.69
2022-10-02T01:07:09.187Z,99952.63
2022-10-02T01:09:36.947Z,99947.69
2022-10-02T01:12:03.862Z,99953.56
2022-10-02T01:14:35.768Z,99966.66
2022-10-02T01:17:03.444Z,99961.13
2022-10-02T01:19:40.708Z,99971.97
2022-10-02T01:22:25.692Z,99973.00
2022-10-02T01:25:01.622Z,99985.16
2022-10-02T01:27:28.478Z,99984.66
2022-10-02T01:30:01.472Z,99986.03
2022-10-02T01:32:29.305Z,100000.81
2022-10-02T01:34:57.074Z,100007.53
2022-10-02T01:37:26.658Z,100004.16
2022-10-02T01:39:53.544Z,100024.75
2022-10-02T01:42:21.283Z,100024.75
2022-10-02T01:44:48.456Z,100026.19
2022-10-02T01:47:19.866Z,100023.41
2022-10-02T01:50:09.449Z,100033.97
2022-10-02T01:52:57.747Z,100048.31
2022-10-02T01:55:37.333Z,100049.56
2022-10-02T01:58:16.623Z,100053.19
2022-10-02T02:00:56.395Z,100065.44
2022-10-02T02:03:51.299Z,100058.50
2022-10-02T02:06:32.475Z,100064.19
2022-10-02T02:09:30.619Z,100068.81
2022-10-02T02:12:22.306Z,100072.44
2022-10-02T02:14:58.774Z,100076.84
2022-10-02T02:17:38.786Z,100075.59
2022-10-02T02:20:09.157Z,100082.56
2022-10-02T02:22:37.129Z,100087.41
2022-10-02T02:25:08.782Z,100073.22
2022-10-02T02:27:41.726Z,100081.41
2022-10-02T02:30:12.055Z,100071.84
2022-10-02T02:33:12.435Z,100084.78
2022-10-02T02:35:42.672Z,100083.94
2022-10-02T02:38:24.867Z,100082.13
2022-10-02T02:40:54.146Z,100083.69
2022-10-02T02:43:43.358Z,100078.78
2022-10-02T02:46:19.849Z,100096.62
2022-10-02T02:48:51.286Z,100092.72
2022-10-02T02:51:22.558Z,100093.41
2022-10-02T02:53:53.907Z,100090.75
2022-10-02T02:56:21.814Z,100103.72
2022-10-02T02:58:55.294Z,100104.28
2022-10-02T03:01:22.646Z,100121.09
2022-10-02T03:03:49.509Z,100106.88
2022-10-02T03:06:16.256Z,100124.97
2022-10-02T03:08:43.750Z,100124.41
2022-10-02T03:11:48.225Z,100128.31
2022-10-02T03:14:17.969Z,100134.16
2022-10-02T03:17:03.303Z,100135.53
2022-10-02T03:19:51.366Z,100143.75
2022-10-02T03:22:57.290Z,100141.66
2022-10-02T03:25:31.905Z,100143.09
2022-10-02T03:28:54.428Z,100149.59
2022-10-02T03:31:20.336Z,100147.53
2022-10-02T03:33:47.721Z,100156.72
2022-10-02T03:36:17.899Z,100147.25
2022-10-02T03:38:53.246Z,100145.97
2022-10-02T03:41:27.891Z,100158.50
2022-10-02T03:43:55.044Z,100157.09
2022-10-02T03:46:21.947Z,100159.75
2022-10-02T03:48:48.866Z,100164.78
2022-10-02T03:51:15.973Z,100165.22
2022-10-02T03:53:42.842Z,100174.53
2022-10-02T03:56:17.938Z,100176.09
2022-10-02T03:58:47.304Z,100174.00
2022-10-02T04:01:22.901Z,100163.72
2022-10-02T04:04:11.612Z,100177.38
2022-10-02T04:06:49.090Z,100178.50
2022-10-02T04:09:53.733Z,100181.59
2022-10-02T04:12:29.635Z,100183.78
2022-10-02T04:15:25.259Z,100182.69
2022-10-02T04:18:05.504Z,100187.41
2022-10-02T04:21:00.695Z,100183.50
2022-10-02T04:23:34.454Z,100193.41
2022-10-02T04:26:08.693Z,100198.00
2022-10-02T04:28:39.759Z,100186.84
2022-10-02T04:31:12.672Z,100196.59
2022-10-02T04:33:39.692Z,100191.44
2022-10-02T04:36:30.576Z,100206.78
2022-10-02T04:39:07.256Z,100212.47
2022-10-02T04:41:40.233Z,100217.81
2022-10-02T04:44:42.254Z,100222.06
2022-10-02T04:47:24.647Z,100235.84
2022-10-02T04:50:11.120Z,100235.28
2022-10-02T04:53:01.700Z,100245.03
2022-10-02T04:55:40.644Z,100241.13
2022-10-02T04:58:38.072Z,100244.50
2022-10-02T05:01:20.413Z,100248.62
2022-10-02T05:04:11.933Z,100251.84
2022-10-02T05:06:49.177Z,100243.63
2022-10-02T05:09:29.601Z,100248.66
2022-10-02T05:12:05.343Z,100248.81
2022-10-02T05:14:38.985Z,100259.84
2022-10-02T05:17:07.662Z,100261.94
2022-10-02T05:19:43.753Z,100272.94
2022-10-02T05:22:19.567Z,100268.28
2022-10-02T05:24:55.361Z,100264.66
2022-10-02T05:27:52.457Z,100264.66
2022-10-02T05:30:20.011Z,100270.25
2022-10-02T05:33:09.176Z,100278.34
2022-10-02T05:36:07.358Z,100288.37
2022-10-02T05:38:59.137Z,100273.66
2022-10-02T05:42:13.683Z,100283.97
2022-10-02T05:44:43.336Z,100292.59
2022-10-02T05:47:19.924Z,100290.12
2022-10-02T05:49:57.207Z,100289.75
2022-10-02T05:52:30.130Z,100296.28
2022-10-02T05:55:01.289Z,100299.09
2022-10-02T05:57:34.746Z,100305.66
2022-10-02T06:00:23.174Z,100304.69
2022-10-02T06:02:53.157Z,100310.12
2022-10-02T06:05:34.652Z,100309.16
2022-10-02T06:08:04.022Z,100308.06
2022-10-02T06:10:42.599Z,100322.28
2022-10-02T06:13:18.775Z,100322.84
2022-10-02T06:16:08.326Z,100314.41
2022-10-02T06:18:36.552Z,100330.34
2022-10-02T06:21:09.601Z,100337.09
2022-10-02T06:23:43.410Z,100350.91
2022-10-02T06:26:24.309Z,100354.97
2022-10-02T06:28:54.213Z,100358.78
2022-10-02T06:31:26.405Z,100365.47
2022-10-02T06:33:53.558Z,100366.09
2022-10-02T06:36:30.165Z,100367.34
2022-10-02T06:39:22.109Z,100372.09
2022-10-02T06:42:26.847Z,100383.88
2022-10-02T06:45:10.345Z,100388.34
2022-10-02T06:48:02.182Z,100384.91
2022-10-02T06:51:09.777Z,100388.66
2022-10-02T06:54:04.113Z,100393.56
2022-10-02T06:56:54.350Z,100414.06
2022-10-02T06:59:30.434Z,100407.44
2022-10-02T07:02:17.431Z,100411.22
2022-10-02T07:05:16.559Z,100411.09
2022-10-02T07:07:58.703Z,100413.84
2022-10-02T07:10:32.855Z,100415.91
2022-10-02T07:13:09.439Z,100419.87
2022-10-02T07:15:57.841Z,100438.03
2022-10-02T07:18:50.606Z,100426.66
2022-10-02T07:21:52.155Z,100416.03
2022-10-02T07:24:36.449Z,100423.53
2022-10-02T07:27:12.398Z,100419.75
2022-10-02T07:29:57.657Z,100418.53
2022-10-02T07:32:39.097Z,100408.59
2022-10-02T07:35:22.049Z,100433.34
2022-10-02T07:38:45.653Z,100428.16
2022-10-02T07:41:23.914Z,100434.38
2022-10-02T07:44:00.873Z,100432.50
2022-10-02T07:46:43.235Z,100438.69
2022-10-02T07:49:22.207Z,100434.06
2022-10-02T07:52:04.671Z,100443.69
2022-10-02T07:54:49.613Z,100444.03
2022-10-02T07:57:39.834Z,100446.87
2022-10-02T08:00:14.204Z,100440.16
2022-10-02T08:02:55.163Z,100437.94
2022-10-02T08:05:28.269Z,100445.09
2022-10-02T08:08:00.286Z,100444.34
2022-10-02T08:10:31.731Z,100449.97
2022-10-02T08:13:04.794Z,100452.88
2022-10-02T08:15:35.701Z,100454.28
2022-10-02T08:18:35.354Z,100450.63
2022-10-02T08:21:06.759Z,100457.25
2022-10-02T08:23:56.841Z,100450.06
2022-10-02T08:26:34.493Z,100452.72
2022-10-02T08:29:15.371Z,100452.66
2022-10-02T08:31:42.301Z,100458.81
2022-10-02T08:34:26.150Z,100466.75
2022-10-02T08:37:21.890Z,100461.53
2022-10-02T08:39:51.764Z,100466.28
2022-10-02T08:42:41.528Z,100472.22
2022-10-02T08:45:47.743Z,100471.31
2022-10-02T08:48:55.323Z,100467.34
2022-10-02T08:51:39.895Z,100469.94
2022-10-02T08:54:54.593Z,100460.91
2022-10-02T08:57:39.698Z,100472.66
2022-10-02T09:00:09.585Z,100475.56
2022-10-02T09:03:13.047Z,100476.50
2022-10-02T09:06:04.904Z,100475.38
2022-10-02T09:08:51.239Z,100477.63
2022-10-02T09:11:51.965Z,100469.12
2022-10-02T09:14:45.115Z,100465.53
2022-10-02T09:17:45.201Z,100461.09
2022-10-02T09:20:18.033Z,100476.84
2022-10-02T09:23:25.653Z,100488.13
2022-10-02T09:25:54.283Z,100487.22
2022-10-02T09:28:39.675Z,100472.19
2022-10-02T09:31:30.224Z,100474.87
2022-10-02T09:34:03.135Z,100465.81
2022-10-02T09:37:04.979Z,100468.28
2022-10-02T09:39:44.165Z,100462.53
2022-10-02T09:42:23.184Z,100444.84
2022-10-02T09:45:12.526Z,100451.81
2022-10-02T09:48:01.478Z,100442.81
2022-10-02T09:50:41.030Z,100437.09
2022-10-02T09:53:32.634Z,100439.69
2022-10-02T09:56:23.338Z,100446.81
2022-10-02T09:59:27.665Z,100437.00
2022-10-02T10:02:28.214Z,100452.12
2022-10-02T10:05:13.753Z,100427.53
2022-10-02T10:07:43.437Z,100423.22
2022-10-02T10:10:18.842Z,100410.81
2022-10-02T10:13:02.318Z,100414.41
2022-10-02T10:16:08.130Z,100413.22
2022-10-02T10:18:39.411Z,100424.53
2022-10-02T10:21:29.390Z,100424.53
2022-10-02T10:24:41.405Z,100424.94
2022-10-02T10:27:38.893Z,100421.41
2022-10-02T10:30:16.357Z,100421.50
2022-10-02T10:33:12.636Z,100420.13
2022-10-02T10:35:46.943Z,100415.09
2022-10-02T10:38:52.158Z,100422.94
2022-10-02T10:41:42.777Z,100426.22
2022-10-02T10:44:31.673Z,100416.56
2022-10-02T10:47:38.660Z,100422.41
2022-10-02T10:50:17.529Z,100422.09
2022-10-02T10:53:05.625Z,100419.59
2022-10-02T10:55:40.094Z,100432.34
2022-10-02T10:58:21.266Z,100424.69
2022-10-02T11:01:11.032Z,100426.38
2022-10-02T11:03:59.812Z,100426.44
2022-10-02T11:06:45.925Z,100427.50
2022-10-02T11:09:22.181Z,100427.53
2022-10-02T11:12:12.817Z,100433.34
2022-10-02T11:14:43.880Z,100431.41
2022-10-02T11:17:24.470Z,100423.34
2022-10-02T11:20:19.256Z,100430.03
2022-10-02T11:23:07.842Z,100425.44
2022-10-02T11:26:12.695Z,100428.69
2022-10-02T11:29:17.133Z,100424.72
2022-10-02T11:31:57.985Z,100423.34
2022-10-02T11:35:03.633Z,100413.50
2022-10-02T11:37:46.408Z,100415.47
2022-10-02T11:40:26.631Z,100405.31
2022-10-02T11:43:31.714Z,100407.88
2022-10-02T11:46:21.605Z,100385.13
2022-10-02T11:48:56.693Z,100385.94
2022-10-02T11:51:46.373Z,100397.13
2022-10-02T11:54:44.793Z,100392.78
2022-10-02T11:57:50.966Z,100397.44
2022-10-02T12:00:37.040Z,100408.28
2022-10-02T12:03:12.833Z,100401.75
2022-10-02T12:06:04.346Z,100393.13
2022-10-02T12:08:53.318Z,100410.34
2022-10-02T12:11:37.737Z,100408.59
2022-10-02T12:14:08.393Z,100412.25
2022-10-02T12:16:44.859Z,100398.94
2022-10-02T12:19:18.303Z,100403.94
2022-10-02T12:22:18.573Z,100401.56
2022-10-02T12:25:20.427Z,100391.31
2022-10-02T12:28:32.540Z,100384.25
2022-10-02T12:31:10.821Z,100368.94
2022-10-02T12:33:54.241Z,100371.44
2022-10-02T12:36:44.870Z,100377.69
2022-10-02T12:39:26.385Z,100367.31
2022-10-02T12:42:02.447Z,100370.00
2022-10-02T12:44:39.255Z,100361.47
2022-10-02T12:47:23.452Z,100360.81
2022-10-02T12:49:58.350Z,100359.50
2022-10-02T12:52:28.821Z,100355.87
2022-10-02T12:54:55.494Z,100341.34
2022-10-02T12:57:55.340Z,100344.44
2022-10-02T13:00:31.237Z,100350.91
2022-10-02T13:03:35.798Z,100339.13
2022-10-02T13:06:14.943Z,100340.59
2022-10-02T13:08:48.406Z,100336.06
2022-10-02T13:11:47.659Z,100333.88
2022-10-02T13:14:17.991Z,100334.50
2022-10-02T13:16:45.108Z,100327.75
2022-10-02T13:19:30.523Z,100327.28
2022-10-02T13:22:03.794Z,100327.66
2022-10-02T13:25:01.399Z,100334.41
2022-10-02T13:27:38.106Z,100330.78
2022-10-02T13:30:17.863Z,100326.53
2022-10-02T13:33:06.025Z,100326.91
2022-10-02T13:36:07.837Z,100326.47
2022-10-02T13:38:37.798Z,100311.59
2022-10-02T13:41:16.722Z,100298.97
2022-10-02T13:43:57.747Z,100290.63
2022-10-02T13:46:49.142Z,100305.09
2022-10-02T13:50:14.116Z,100300.63
2022-10-02T13:52:52.023Z,100297.75
2022-10-02T13:55:22.974Z,100299.31
2022-10-02T13:58:20.624Z,100296.22
2022-10-02T14:00:59.331Z,100293.09
2022-10-02T14:03:49.054Z,100286.44
2022-10-02T14:06:27.191Z,100286.81
2022-10-02T14:09:03.473Z,100287.97
2022-10-02T14:11:38.497Z,100284.56
2022-10-02T14:14:11.885Z,100288.47
2022-10-02T14:16:44.758Z,100280.38
2022-10-02T14:19:29.799Z,100276.91
2022-10-02T14:22:15.270Z,100273.97
2022-10-02T14:25:00.944Z,100270.91
2022-10-02T14:27:53.712Z,100281.34
2022-10-02T14:30:29.295Z,100270.22
2022-10-02T14:33:08.294Z,100272.41
2022-10-02T14:35:52.559Z,100261.13
2022-10-02T14:38:26.199Z,100254.56
2022-10-02T14:40:59.267Z,100253.13
2022-10-02T14:43:50.255Z,100256.53
2022-10-02T14:46:36.012Z,100261.88
2022-10-02T14:49:22.834Z,100249.12
2022-10-02T14:52:08.295Z,100246.72
2022-10-02T14:55:01.453Z,100236.75
2022-10-02T14:57:47.433Z,100235.50
2022-10-02T15:00:20.378Z,100243.25
2022-10-02T15:03:11.751Z,100231.25
2022-10-02T15:06:05.154Z,100238.34
2022-10-02T15:08:40.432Z,100229.19
2022-10-02T15:11:19.468Z,100229.12
2022-10-02T15:13:50.465Z,100225.22
2022-10-02T15:16:45.246Z,100215.88
2022-10-02T15:19:27.190Z,100230.41
2022-10-02T15:22:20.246Z,100215.00
2022-10-02T15:25:17.907Z,100218.16
2022-10-02T15:28:24.323Z,100213.97
2022-10-02T15:31:03.809Z,100213.94
2022-10-02T15:33:35.738Z,100212.94
2022-10-02T15:36:35.455Z,100206.28
2022-10-02T15:39:27.454Z,100209.06
2022-10-02T15:42:08.736Z,100210.06
2022-10-02T15:44:56.472Z,100205.22
2022-10-02T15:47:38.214Z,100191.72
2022-10-02T15:50:14.336Z,100195.66
2022-10-02T15:53:11.361Z,100193.34
2022-10-02T15:55:53.385Z,100199.19
2022-10-02T15:58:57.334Z,100185.56
2022-10-02T16:01:34.723Z,100183.81
2022-10-02T16:04:19.667Z,100189.06
2022-10-02T16:07:20.190Z,100196.66
2022-10-02T16:10:12.106Z,100193.88
2022-10-02T16:12:45.825Z,100191.50
2022-10-02T16:15:31.639Z,100177.72
2022-10-02T16:18:15.234Z,100191.91
2022-10-02T16:21:00.722Z,100191.38
2022-10-02T16:23:45.717Z,100192.19
2022-10-02T16:26:24.971Z,100192.31
2022-10-02T16:29:14.449Z,100188.44
2022-10-02T16:32:15.744Z,100193.31
2022-10-02T16:34:57.533Z,100192.38
2022-10-02T16:37:29.238Z,100210.34
2022-10-02T16:40:00.497Z,100217.94
2022-10-02T16:42:57.825Z,100208.97
2022-10-02T16:45:40.330Z,100201.44
2022-10-02T16:48:19.371Z,100194.69
2022-10-02T16:51:09.758Z,100198.88
2022-10-02T16:53:55.590Z,100193.78
2022-10-02T16:56:32.507Z,100192.09
2022-10-02T16:59:16.153Z,100197.28
2022-10-02T17:02:05.832Z,100178.28
2022-10-02T17:05:06.549Z,100181.50
2022-10-02T17:07:36.394Z,100178.28
2022-10-02T17:10:15.510Z,100179.19
2022-10-02T17:13:07.228Z,100176.16
2022-10-02T17:15:42.149Z,100180.09
2022-10-02T17:18:33.386Z,100170.91
2022-10-02T17:21:12.904Z,100167.56
2022-10-02T17:23:44.602Z,100168.56
2022-10-02T17:26:27.089Z,100165.06
2022-10-02T17:29:06.821Z,100167.19
2022-10-02T17:31:35.616Z,100160.88
2022-10-02T17:34:17.829Z,100171.28
2022-10-02T17:37:02.425Z,100176.00
2022-10-02T17:39:48.100Z,100183.56
2022-10-02T17:42:41.303Z,100178.25
2022-10-02T17:45:32.067Z,100169.00
2022-10-02T17:48:39.575Z,100171.00
2022-10-02T17:51:47.543Z,100167.62
2022-10-02T17:54:50.011Z,100162.63
2022-10-02T17:57:34.254Z,100160.97
2022-10-02T18:00:30.260Z,100159.66
2022-10-02T18:03:03.426Z,100152.53
2022-10-02T18:06:04.762Z,100155.66
2022-10-02T18:08:57.040Z,100154.72
2022-10-02T18:11:34.678Z,100166.50
2022-10-02T18:14:20.780Z,100163.63
2022-10-02T18:17:15.458Z,100166.13
2022-10-02T18:19:42.465Z,100159.13
2022-10-02T18:22:24.470Z,100164.44
2022-10-02T18:25:11.900Z,100168.25
2022-10-02T18:28:17.587Z,100156.88
2022-10-02T18:31:03.622Z,100159.53
2022-10-02T18:33:49.487Z,100164.91
2022-10-02T18:36:25.416Z,100161.25
2022-10-02T18:39:13.254Z,100170.00
2022-10-02T18:42:19.713Z,100169.44
2022-10-02T18:44:58.335Z,100167.41
2022-10-02T18:47:50.890Z,100172.72
2022-10-02T18:50:29.239Z,100173.50
2022-10-02T18:53:27.123Z,100178.50
2022-10-02T18:56:13.319Z,100162.69
2022-10-02T18:58:51.630Z,100168.78
2022-10-02T19:01:46.455Z,100170.19
2022-10-02T19:04:22.229Z,100167.69
2022-10-02T19:06:53.404Z,100158.91
2022-10-02T19:09:24.854Z,100167.31
2022-10-02T19:12:16.120Z,100162.00
2022-10-02T19:14:47.686Z,100163.06
2022-10-02T19:17:26.094Z,100153.03
2022-10-02T19:19:54.093Z,100154.72
2022-10-02T19:22:23.632Z,100163.81
2022-10-02T19:24:54.403Z,100164.81
2022-10-02T19:27:29.983Z,100163.28
2022-10-02T19:29:59.352Z,100159.94
2022-10-02T19:32:41.241Z,100161.09
2022-10-02T19:35:15.259Z,100167.50
2022-10-02T19:37:43.327Z,100163.63
2022-10-02T19:40:21.963Z,100163.19
2022-10-02T19:42:56.006Z,100154.69
2022-10-02T19:45:25.608Z,100153.97
2022-10-02T19:48:05.071Z,100147.56
2022-10-02T19:50:41.372Z,100136.41
2022-10-02T19:53:29.853Z,100134.44
2022-10-02T19:56:01.505Z,100139.63
2022-10-02T19:58:34.634Z,100133.38
2022-10-02T20:01:02.170Z,100130.12
2022-10-02T20:03:30.115Z,100123.16
2022-10-02T20:06:01.180Z,100128.63
2022-10-02T20:08:36.472Z,100122.78
2022-10-02T20:11:15.817Z,100124.75
2022-10-02T20:13:48.477Z,100120.44
2022-10-02T20:16:40.228Z,100117.25
2022-10-02T20:19:14.000Z,100113.31
2022-10-02T20:21:48.866Z,100107.22
2022-10-02T20:24:22.375Z,100117.63
2022-10-02T20:26:51.794Z,100114.41
2022-10-02T20:29:24.009Z,100112.00
2022-10-02T20:31:58.459Z,100107.22
2022-10-02T20:34:31.511Z,100114.81
2022-10-02T20:37:05.997Z,100105.47
2022-10-02T20:39:40.897Z,100115.56
2022-10-02T20:42:31.901Z,100117.38
2022-10-02T20:44:58.751Z,100104.03
2022-10-02T20:48:16.409Z,100105.69
2022-10-02T20:50:50.512Z,100108.56
2022-10-02T20:53:47.422Z,100100.25
2022-10-02T20:56:40.694Z,100110.47
2022-10-02T20:59:45.185Z,100108.94
2022-10-02T21:02:22.866Z,100104.50
2022-10-02T21:05:16.159Z,100111.19
2022-10-02T21:07:45.925Z,100116.53
2022-10-02T21:10:37.728Z,100123.25
2022-10-02T21:13:28.702Z,100114.75
2022-10-02T21:16:17.393Z,100113.09
2022-10-02T21:19:03.795Z,100103.22
2022-10-02T21:22:06.368Z,100110.66
2022-10-02T21:24:54.552Z,100102.28
2022-10-02T21:27:52.014Z,100113.56
2022-10-02T21:30:22.753Z,100111.91
2022-10-02T21:33:11.057Z,100109.94
2022-10-02T21:35:46.154Z,100106.59
2022-10-02T21:38:23.583Z,100101.72
2022-10-02T21:41:14.713Z,100109.41
2022-10-02T21:44:21.292Z,100098.50
2022-10-02T21:46:51.431Z,100087.38
2022-10-02T21:49:35.730Z,100089.03
2022-10-02T21:52:53.279Z,100088.31
2022-10-02T21:56:01.319Z,100078.03
2022-10-02T21:58:54.508Z,100077.34
2022-10-02T22:01:51.838Z,100081.66
2022-10-02T22:05:03.317Z,100083.59
2022-10-02T22:07:54.117Z,100080.13
2022-10-02T22:10:35.219Z,100087.69
2022-10-02T22:13:18.222Z,100086.56
2022-10-02T22:15:57.244Z,100084.47
2022-10-02T22:18:53.665Z,100086.56
2022-10-02T22:21:25.882Z,100080.03
2022-10-02T22:24:14.720Z,100079.34
2022-10-02T22:27:17.235Z,100079.06
2022-10-02T22:29:49.766Z,100075.28
2022-10-02T22:33:05.161Z,100088.41
2022-10-02T22:35:59.219Z,100089.50
2022-10-02T22:38:50.744Z,100082.56
2022-10-02T22:41:27.835Z,100080.72
2022-10-02T22:44:24.332Z,100084.78
2022-10-02T22:46:56.737Z,100087.28
2022-10-02T22:49:43.136Z,100084.09
2022-10-02T22:52:21.333Z,100094.13
2022-10-02T22:55:07.917Z,100089.97
2022-10-02T22:57:37.722Z,100092.47
2022-10-02T23:00:26.273Z,100088.37
2022-10-02T23:03:01.888Z,100091.34
2022-10-02T23:05:43.834Z,100090.91
2022-10-02T23:08:13.670Z,100097.72
2022-10-02T23:10:46.681Z,100098.00
2022-10-02T23:13:21.552Z,100090.50
2022-10-02T23:15:53.192Z,100097.31
2022-10-02T23:18:41.445Z,100087.13
2022-10-02T23:21:40.035Z,100080.87
2022-10-02T23:24:56.345Z,100075.84
2022-10-02T23:28:01.827Z,100077.78
2022-10-02T23:30:31.134Z,100081.84
2022-10-02T23:33:13.943Z,100085.03
2022-10-02T23:35:52.945Z,100078.91
2022-10-02T23:38:30.242Z,100080.72
2022-10-02T23:41:34.200Z,100076.00
2022-10-02T23:44:19.452Z,100069.88
2022-10-02T23:46:49.298Z,100064.88
2022-10-02T23:49:18.421Z,100066.12
2022-10-02T23:52:03.334Z,100079.50
2022-10-02T23:54:39.529Z,100077.66
2022-10-02T23:57:29.790Z,100082.69
